createdAt,value
2023-03-11T00:01:15.414Z,18.5
2023-03-11T00:06:17.713Z,18.4
2023-03-11T00:11:19.963Z,18.4
2023-03-11T00:16:22.198Z,18.4
2023-03-11T00:21:24.455Z,18.3
2023-03-11T00:26:26.618Z,18.3
2023-03-11T00:31:28.886Z,18.2
2023-03-11T00:36:31.060Z,18.2
2023-03-11T00:41:33.315Z,18.1
2023-03-11T00:46:35.721Z,18.1
2023-03-11T00:51:37.874Z,18
2023-03-11T00:56:40.068Z,17.9
2023-03-11T01:01:42.444Z,17.8
2023-03-11T01:06:45.744Z,17.7
2023-03-11T01:11:46.786Z,17.7
2023-03-11T01:16:49.028Z,17.7
2023-03-11T01:21:51.183Z,17.7
2023-03-11T01:26:53.299Z,17.6
2023-03-11T01:31:55.430Z,17.6
2023-03-11T01:36:57.680Z,17.5
2023-03-11T01:41:59.737Z,17.5
2023-03-11T01:47:02.024Z,17.4
2023-03-11T01:52:04.282Z,17.4
2023-03-11T01:57:06.386Z,17.3
2023-03-11T02:02:08.629Z,17.3
2023-03-11T02:07:10.798Z,17.3
2023-03-11T02:12:12.865Z,17.2
2023-03-11T02:17:15.011Z,17.2
2023-03-11T02:22:17.180Z,17.1
2023-03-11T02:27:19.283Z,17.1
2023-03-11T02:32:21.499Z,17
2023-03-11T02:37:23.678Z,17
2023-03-11T02:42:25.797Z,17
2023-03-11T02:47:27.904Z,16.9
2023-03-11T02:52:30.068Z,16.9
2023-03-11T02:57:32.228Z,16.9
2023-03-11T03:02:34.484Z,16.9
2023-03-11T03:07:36.669Z,16.8
2023-03-11T03:12:38.932Z,16.8
2023-03-11T03:17:41.251Z,16.8
2023-03-11T03:22:43.508Z,16.7
2023-03-11T03:27:45.724Z,16.7
2023-03-11T03:32:47.974Z,16.7
2023-03-11T03:37:50.126Z,16.7
2023-03-11T03:42:52.311Z,16.6
2023-03-11T03:47:54.623Z,16.6
2023-03-11T03:52:56.731Z,16.6
2023-03-11T03:57:58.827Z,16.5
2023-03-11T04:03:01.069Z,16.5
2023-03-11T04:08:03.202Z,16.5
2023-03-11T04:13:05.316Z,16.4
2023-03-11T04:18:07.433Z,16.4
2023-03-11T04:23:09.586Z,16.4
2023-03-11T04:28:11.692Z,16.3
2023-03-11T04:33:13.818Z,16.3
2023-03-11T04:38:15.976Z,16.3
2023-03-11T04:43:18.076Z,16.2
2023-03-11T04:48:20.187Z,16.2
2023-03-11T04:53:22.402Z,16.1
2023-03-11T04:58:24.495Z,16.1
2023-03-11T05:03:26.653Z,16.1
2023-03-11T05:08:28.905Z,16
2023-03-11T05:13:30.994Z,16
2023-03-11T05:18:33.135Z,16
2023-03-11T05:23:35.313Z,16
2023-03-11T05:28:37.417Z,15.9
2023-03-11T05:33:39.546Z,16
2023-03-11T05:38:41.818Z,16
2023-03-11T05:43:43.956Z,16.1
2023-03-11T05:48:46.102Z,16.2
2023-03-11T05:53:48.348Z,16.3
2023-03-11T05:58:50.591Z,16.6
2023-03-11T06:03:52.832Z,16.9
2023-03-11T06:08:54.900Z,17.3
2023-03-11T06:13:57.117Z,17.7
2023-03-11T06:18:59.444Z,18.1
2023-03-11T06:24:01.752Z,18.6
2023-03-11T06:29:04.013Z,19.1
2023-03-11T06:34:06.265Z,19.5
2023-03-11T06:39:08.414Z,19.9
2023-03-11T06:44:10.648Z,20.3
2023-03-11T06:49:12.973Z,20.4
2023-03-11T06:54:15.265Z,20.5
2023-03-11T06:59:17.480Z,20.5
2023-03-11T07:04:19.840Z,20.5
2023-03-11T07:09:21.937Z,20.5
2023-03-11T07:14:24.151Z,20.4
2023-03-11T07:19:26.448Z,20.3
2023-03-11T07:24:28.748Z,20.2
2023-03-11T07:29:30.943Z,20.2
2023-03-11T07:34:33.185Z,20.1
2023-03-11T07:39:35.360Z,20
2023-03-11T07:44:37.550Z,19.9
2023-03-11T07:49:39.719Z,19.8
2023-03-11T07:54:41.860Z,19.7
2023-03-11T07:59:43.949Z,19.6
2023-03-11T08:04:46.071Z,19.5
2023-03-11T08:09:48.319Z,19.5
2023-03-11T08:14:50.445Z,19.5
2023-03-11T08:19:52.601Z,19.6
2023-03-11T08:24:54.876Z,19.8
2023-03-11T08:29:57.085Z,20
2023-03-11T08:34:59.215Z,20.4
2023-03-11T08:40:01.472Z,20.8
2023-03-11T08:45:03.577Z,21.2
2023-03-11T08:50:05.849Z,21.7
2023-03-11T08:55:08.119Z,22
2023-03-11T09:00:12.664Z,22.1
2023-03-11T09:05:12.477Z,22.1
2023-03-11T09:10:14.620Z,22.1
2023-03-11T09:15:16.803Z,22
2023-03-11T09:20:18.996Z,21.9
2023-03-11T09:25:21.169Z,21.8
2023-03-11T09:30:23.250Z,21.7
2023-03-11T09:35:25.438Z,21.6
2023-03-11T09:40:27.536Z,21.5
2023-03-11T09:45:29.625Z,21.4
2023-03-11T09:50:31.747Z,21.3
2023-03-11T09:55:33.886Z,21.2
2023-03-11T10:00:35.987Z,21
2023-03-11T10:05:39.231Z,20.9
2023-03-11T10:10:41.461Z,20.8
2023-03-11T10:15:43.551Z,20.7
2023-03-11T10:20:45.765Z,20.7
2023-03-11T10:25:47.918Z,20.7
2023-03-11T10:30:50.339Z,20.7
2023-03-11T10:35:52.471Z,20.8
2023-03-11T10:46:06.686Z,21.4
2023-03-11T10:51:08.756Z,21.8
2023-03-11T10:56:10.881Z,22.3
2023-03-11T11:01:13.120Z,22.6
2023-03-11T11:06:15.141Z,22.8
2023-03-11T11:11:17.305Z,22.9
2023-03-11T11:16:19.452Z,22.9
2023-03-11T11:21:21.546Z,22.9
2023-03-11T11:26:23.680Z,22.8
2023-03-11T11:31:25.853Z,22.7
2023-03-11T11:36:27.932Z,22.6
2023-03-11T11:41:30.058Z,22.4
2023-03-11T11:46:32.341Z,22.3
2023-03-11T11:51:34.328Z,22.2
2023-03-11T11:56:36.549Z,22.1
2023-03-11T12:01:38.704Z,21.9
2023-03-11T12:06:40.810Z,21.8
2023-03-11T12:11:42.947Z,21.7
2023-03-11T12:16:45.092Z,21.5
2023-03-11T12:21:47.271Z,21.4
2023-03-11T12:26:49.397Z,21.4
2023-03-11T12:31:51.546Z,21.4
2023-03-11T12:36:53.650Z,21.5
2023-03-11T12:41:55.789Z,21.6
2023-03-11T12:46:58.142Z,21.9
2023-03-11T12:52:00.039Z,22.2
2023-03-11T12:57:02.175Z,22.6
2023-03-11T13:02:04.619Z,22.8
2023-03-11T13:12:18.822Z,22.9
2023-03-11T13:17:21.148Z,22.9
2023-03-11T13:22:23.245Z,22.9
2023-03-11T13:27:25.378Z,22.8
2023-03-11T13:32:27.695Z,22.7
2023-03-11T13:37:29.790Z,22.5
2023-03-11T13:42:32.031Z,22.3
2023-03-11T13:47:34.278Z,22.2
2023-03-11T13:52:36.402Z,22.1
2023-03-11T13:57:38.543Z,22.1
2023-03-11T14:02:40.850Z,22
2023-03-11T14:07:42.979Z,22
2023-03-11T14:12:45.231Z,21.9
2023-03-11T14:17:48.804Z,21.9
2023-03-11T14:22:49.741Z,21.8
2023-03-11T14:27:51.884Z,21.7
2023-03-11T14:32:54.230Z,21.5
2023-03-11T14:37:56.309Z,21.4
2023-03-11T14:42:58.416Z,21.2
2023-03-11T14:48:00.583Z,21.1
2023-03-11T14:53:04.674Z,21
2023-03-11T14:58:04.789Z,20.9
2023-03-11T15:03:07.000Z,20.9
2023-03-11T15:08:09.174Z,20.9
2023-03-11T15:13:11.301Z,20.8
2023-03-11T15:18:13.484Z,20.8
2023-03-11T15:23:15.709Z,20.8
2023-03-11T15:28:17.937Z,20.8
2023-03-11T15:33:20.102Z,20.7
2023-03-11T15:38:22.313Z,20.7
2023-03-11T15:43:24.535Z,20.7
2023-03-11T15:48:26.844Z,20.7
2023-03-11T15:53:29.116Z,20.6
2023-03-11T15:58:31.340Z,20.6
2023-03-11T16:03:33.594Z,20.5
2023-03-11T16:08:35.766Z,20.4
2023-03-11T16:13:37.904Z,20.4
2023-03-11T16:18:40.061Z,20.4
2023-03-11T16:23:51.420Z,20.5
2023-03-11T16:28:44.488Z,20.7
2023-03-11T16:33:46.659Z,20.9
2023-03-11T16:38:48.870Z,21.3
2023-03-11T16:43:51.106Z,21.6
2023-03-11T16:48:53.388Z,22
2023-03-11T16:53:55.575Z,22.3
2023-03-11T16:58:57.839Z,22.6
2023-03-11T17:04:00.226Z,22.8
2023-03-11T17:09:02.467Z,22.8
2023-03-11T17:14:15.729Z,22.8
2023-03-11T17:19:06.857Z,22.8
2023-03-11T17:24:08.969Z,22.8
2023-03-11T17:29:11.113Z,22.7
2023-03-11T17:34:13.337Z,22.6
2023-03-11T17:39:15.446Z,22.5
2023-03-11T17:44:17.583Z,22.4
2023-03-11T17:49:19.838Z,22.3
2023-03-11T17:54:22.031Z,22.1
2023-03-11T17:59:24.222Z,22
2023-03-11T18:04:26.669Z,21.9
2023-03-11T18:09:28.771Z,21.8
2023-03-11T18:14:31.024Z,21.6
2023-03-11T18:19:33.309Z,21.5
2023-03-11T18:24:35.452Z,21.4
2023-03-11T18:29:37.670Z,21.3
2023-03-11T18:34:39.973Z,21.2
2023-03-11T18:39:42.019Z,21.1
2023-03-11T18:44:44.446Z,21.1
2023-03-11T18:49:46.718Z,21
2023-03-11T18:54:48.941Z,21
2023-03-11T18:59:51.186Z,21
2023-03-11T19:04:53.453Z,20.9
2023-03-11T19:09:55.461Z,20.8
2023-03-11T19:14:57.700Z,20.8
2023-03-11T19:20:00.006Z,20.8
2023-03-11T19:25:02.417Z,20.8
2023-03-11T19:30:04.718Z,21
2023-03-11T19:35:07.093Z,21.3
2023-03-11T19:40:11.377Z,21.7
2023-03-11T19:45:11.554Z,22.1
2023-03-11T19:50:13.870Z,22.5
2023-03-11T19:55:16.104Z,22.8
2023-03-11T20:00:18.308Z,23.1
2023-03-11T20:05:20.624Z,23.2
2023-03-11T20:10:22.938Z,23.2
2023-03-11T20:15:25.172Z,23.2
2023-03-11T20:20:27.404Z,23.1
2023-03-11T20:25:29.797Z,23
2023-03-11T20:30:32.030Z,23
2023-03-11T20:35:34.211Z,22.9
2023-03-11T20:40:36.446Z,22.8
2023-03-11T20:45:38.530Z,22.7
2023-03-11T20:50:40.798Z,22.5
2023-03-11T20:55:42.973Z,22.3
2023-03-11T21:00:45.298Z,22.2
2023-03-11T21:05:47.614Z,22.1
2023-03-11T21:10:52.969Z,22
2023-03-11T21:15:55.338Z,21.9
2023-03-11T21:20:57.537Z,21.8
2023-03-11T21:25:59.648Z,21.8
2023-03-11T21:31:02.002Z,21.7
2023-03-11T21:36:03.950Z,21.7
2023-03-11T21:41:06.218Z,21.7
2023-03-11T21:46:08.435Z,21.7
2023-03-11T21:51:10.832Z,21.7
2023-03-11T21:56:12.946Z,21.6
2023-03-11T22:01:15.115Z,21.5
2023-03-11T22:06:17.436Z,21.4
2023-03-11T22:11:19.576Z,21.3
2023-03-11T22:16:21.851Z,21
2023-03-11T22:21:23.925Z,20.8
2023-03-11T22:26:25.880Z,20.6
2023-03-11T22:31:28.041Z,20.4
2023-03-11T22:36:30.181Z,20.3
2023-03-11T22:41:32.280Z,20.3
2023-03-11T22:46:34.416Z,20.2
2023-03-11T22:51:36.624Z,20.2
2023-03-11T22:56:38.876Z,20.1
2023-03-11T23:01:41.048Z,20.1
2023-03-11T23:06:43.279Z,20.1
2023-03-11T23:11:45.411Z,20
2023-03-11T23:16:47.584Z,19.9
2023-03-11T23:21:49.722Z,19.8
2023-03-11T23:26:51.900Z,19.7
2023-03-11T23:31:54.046Z,19.6
2023-03-11T23:36:56.175Z,19.5
2023-03-11T23:41:58.416Z,19.4
2023-03-11T23:47:00.767Z,19.4
2023-03-11T23:52:02.993Z,19.3
2023-03-11T23:57:05.232Z,19.2
